Blende, Colorado
Current Conditions -  °F | °C
As of 11:53 AM on Thursday 23 Oct 2014 (Local Time) from KPUB Reporting Station
Clear Clear  
Wind Chill: 72°   Ceiling: Unl
Heat Index: 72°   Visibility: 10mi
Dew Point: 31°   Wind: 5mph
Humidity: 22%   Direction: 290°WNW
Pressure: 30.16"   Gusts: NA
Location:  38.2482°N, 104.47°W
Report Text: KPUB 231753Z 29004KT 10SM CLR 22/M01 A3016 RMK AO2 SLP170 T02221006 10222 20050 58009
Loading
Personal Weather Stations






























Interactive Weather Map
Tropical Storm Tracking
New forecast layout! Learn more

10-Day Weather Forecast

Advertisements
Track Severe Weather on mobile